ěÝzenÝ letovÚho provozu ╚eskÚ republiky
Letiste: LKMT Aktualizace: 24.09.2023 05:00:40  UTC
 METAR LKMT 24.09. 05:00 ...
METAR LKMT 240500Z 03005KT CAVOK 11/10 Q1023 NOSIG=
 TAF LKMT 23.09. 23:00 ...
TAF LKMT 232300Z 2400/2500 03008KT 9999 BKN040      TEMPO 2403/2407 7000 SCT010      PROB30 TEMPO 2410/2500 03010G20KT 7000 -RA BKN017=